createdAt,value
2017-02-15T00:00:10.883Z,56.12
2017-02-15T00:01:19.875Z,55.55
2017-02-15T00:02:29.048Z,55.55
2017-02-15T00:03:38.805Z,55.55
2017-02-15T00:04:47.784Z,55.45
2017-02-15T00:05:56.760Z,55.55
2017-02-15T00:07:06.112Z,55.36
2017-02-15T00:08:15.454Z,55.36
2017-02-15T00:09:24.905Z,55.36
2017-02-15T00:10:34.287Z,55.36
2017-02-15T00:11:43.389Z,55.36
2017-02-15T00:12:52.484Z,55.55
2017-02-15T00:14:01.465Z,55.74
2017-02-15T00:15:10.447Z,55.83
2017-02-15T00:16:19.837Z,55.83
2017-02-15T00:17:29.072Z,55.74
2017-02-15T00:18:38.462Z,55.74
2017-02-15T00:19:47.666Z,56.4
2017-02-15T00:20:56.730Z,56.59
2017-02-15T00:22:05.720Z,56.3
2017-02-15T00:23:14.712Z,56.4
2017-02-15T00:24:23.700Z,56.3
2017-02-15T00:25:32.709Z,56.4
2017-02-15T00:26:42.281Z,56.3
2017-02-15T00:27:51.262Z,56.85
2017-02-15T00:29:00.648Z,56.87
2017-02-15T00:30:09.644Z,56.97
2017-02-15T00:31:19.134Z,56.59
2017-02-15T00:32:28.776Z,56.87
2017-02-15T00:33:37.855Z,56.66
2017-02-15T00:34:46.927Z,56.75
2017-02-15T00:35:55.944Z,56.59
2017-02-15T00:37:05.366Z,56.49
2017-02-15T00:38:14.714Z,56.78
2017-02-15T00:39:23.712Z,56.94
2017-02-15T00:40:33.130Z,56.87
2017-02-15T00:41:42.967Z,56.78
2017-02-15T00:42:51.965Z,56.87
2017-02-15T00:44:01.366Z,56.68
2017-02-15T00:45:10.697Z,56.66
2017-02-15T00:46:20.168Z,56.87
2017-02-15T00:47:29.394Z,56.97
2017-02-15T00:48:38.411Z,56.49
2017-02-15T00:49:47.392Z,56.68
2017-02-15T00:50:57.238Z,56.97
2017-02-15T00:52:06.217Z,56.87
2017-02-15T00:53:15.443Z,56.87
2017-02-15T00:54:24.809Z,56.78
2017-02-15T00:55:33.999Z,56.78
2017-02-15T00:56:43.146Z,56.59
2017-02-15T00:57:52.286Z,56.87
2017-02-15T00:59:01.264Z,56.75
2017-02-15T01:00:10.253Z,56.68
2017-02-15T01:01:19.820Z,56.87
2017-02-15T01:02:28.856Z,56.49
2017-02-15T01:03:38.194Z,57.04
2017-02-15T01:04:47.757Z,56.56
2017-02-15T01:05:57.685Z,56.49
2017-02-15T01:07:07.629Z,56.78
2017-02-15T01:08:16.607Z,56.78
2017-02-15T01:09:26.105Z,56.68
2017-02-15T01:10:35.199Z,56.97
2017-02-15T01:11:44.283Z,56.68
2017-02-15T01:12:53.369Z,56.68
2017-02-15T01:14:02.387Z,57.16
2017-02-15T01:15:11.493Z,57.06
2017-02-15T01:16:20.581Z,57.13
2017-02-15T01:17:29.566Z,57.35
2017-02-15T01:18:38.567Z,57.35
2017-02-15T01:19:47.644Z,57.25
2017-02-15T01:20:56.933Z,57.16
2017-02-15T01:22:06.020Z,57.35
2017-02-15T01:23:15.080Z,57.16
2017-02-15T01:24:24.079Z,57.16
2017-02-15T01:25:33.249Z,57.06
2017-02-15T01:26:42.246Z,57.16
2017-02-15T01:27:51.225Z,57.25
2017-02-15T01:29:00.208Z,57.23
2017-02-15T01:30:09.211Z,57.25
2017-02-15T01:31:18.625Z,57.13
2017-02-15T01:32:27.633Z,56.94
2017-02-15T01:33:36.793Z,57.06
2017-02-15T01:34:45.800Z,57.44
2017-02-15T01:35:54.805Z,57.35
2017-02-15T01:37:03.891Z,57.25
2017-02-15T01:38:12.887Z,56.49
2017-02-15T01:39:21.882Z,56.87
2017-02-15T01:40:30.882Z,56.68
2017-02-15T01:41:39.903Z,56.87
2017-02-15T01:42:49.311Z,56.78
2017-02-15T01:43:58.284Z,57.06
2017-02-15T01:45:07.280Z,56.68
2017-02-15T01:46:16.666Z,56.4
2017-02-15T01:47:25.663Z,56.78
2017-02-15T01:48:34.642Z,56.59
2017-02-15T01:49:43.640Z,56.68
2017-02-15T01:50:52.920Z,56.4
2017-02-15T01:52:01.930Z,56.78
2017-02-15T01:53:10.962Z,56.59
2017-02-15T01:54:20.461Z,56.97
2017-02-15T01:55:29.958Z,56.4
2017-02-15T01:56:40.459Z,56.4
2017-02-15T01:57:49.480Z,56.12
2017-02-15T01:58:58.472Z,56.02
2017-02-15T02:00:07.916Z,55.55
2017-02-15T02:01:17.292Z,55.74
2017-02-15T02:02:26.691Z,55.83
2017-02-15T02:03:36.092Z,55.83
2017-02-15T02:04:46.865Z,55.83
2017-02-15T02:05:56.870Z,55.93
2017-02-15T02:07:05.956Z,55.93
2017-02-15T02:08:15.274Z,55.93
2017-02-15T02:09:24.690Z,56.12
2017-02-15T02:10:34.120Z,55.74
2017-02-15T02:11:43.831Z,56.02
2017-02-15T02:12:53.595Z,55.74
2017-02-15T02:14:03.089Z,56.12
2017-02-15T02:15:12.095Z,55.36
2017-02-15T02:16:21.176Z,55.45
2017-02-15T02:17:30.164Z,55.55
2017-02-15T02:18:39.141Z,55.36
2017-02-15T02:19:48.223Z,55.45
2017-02-15T02:20:58.158Z,55.45
2017-02-15T02:22:09.299Z,55.55
2017-02-15T02:23:18.286Z,55.36
2017-02-15T02:24:27.979Z,55.17
2017-02-15T02:25:37.396Z,55.45
2017-02-15T02:26:46.531Z,55.36
2017-02-15T02:27:55.746Z,55.36
2017-02-15T02:29:05.067Z,55.36
2017-02-15T02:30:14.462Z,55.55
2017-02-15T02:31:23.861Z,55.55
2017-02-15T02:32:33.687Z,55.64
2017-02-15T02:33:43.278Z,56.12
2017-02-15T02:34:52.770Z,55.83
2017-02-15T02:36:02.609Z,55.74
2017-02-15T02:37:11.589Z,56.12
2017-02-15T02:38:21.513Z,55.83
2017-02-15T02:39:30.498Z,55.8
2017-02-15T02:40:40.355Z,55.83
2017-02-15T02:41:49.519Z,55.64
2017-02-15T02:42:59.854Z,56.02
2017-02-15T02:44:09.013Z,55.93
2017-02-15T02:45:19.442Z,56.12
2017-02-15T02:46:28.433Z,56.66
2017-02-15T02:47:38.492Z,56.12
2017-02-15T02:48:47.497Z,55.71
2017-02-15T02:49:57.649Z,55.74
2017-02-15T02:51:07.942Z,55.71
2017-02-15T02:52:16.926Z,55.55
2017-02-15T02:53:27.425Z,55.83
2017-02-15T02:54:37.216Z,55.74
2017-02-15T02:55:47.067Z,55.62
2017-02-15T02:56:56.339Z,55.99
2017-02-15T02:58:06.207Z,56.27
2017-02-15T02:59:15.301Z,56.27
2017-02-15T03:00:25.004Z,56.27
2017-02-15T03:01:34.003Z,56.37
2017-02-15T03:02:43.983Z,56.09
2017-02-15T03:03:53.056Z,55.99
2017-02-15T03:05:03.287Z,55.99
2017-02-15T03:06:12.364Z,56.09
2017-02-15T03:07:21.704Z,56.46
2017-02-15T03:08:30.691Z,56.66
2017-02-15T03:09:41.328Z,56.09
2017-02-15T03:10:50.323Z,55.8
2017-02-15T03:12:01.510Z,55.8
2017-02-15T03:13:10.499Z,55.74
2017-02-15T03:14:21.493Z,55.83
2017-02-15T03:15:30.986Z,55.55
2017-02-15T03:16:40.004Z,55.45
2017-02-15T03:17:51.357Z,55.45
2017-02-15T03:19:00.817Z,55.45
2017-02-15T03:20:12.458Z,55.36
2017-02-15T03:21:21.441Z,55.55
2017-02-15T03:22:32.319Z,56.12
2017-02-15T03:23:42.804Z,55.71
2017-02-15T03:24:51.785Z,55.8
2017-02-15T03:26:02.906Z,55.52
2017-02-15T03:27:12.091Z,55.62
2017-02-15T03:28:21.682Z,56.27
2017-02-15T03:29:30.849Z,56.56
2017-02-15T03:30:40.815Z,56.09
2017-02-15T03:31:49.952Z,56.85
2017-02-15T03:33:01.119Z,56.66
2017-02-15T03:34:10.186Z,56.46
2017-02-15T03:35:20.386Z,56.75
2017-02-15T03:36:29.382Z,57.04
2017-02-15T03:37:41.560Z,57.42
2017-02-15T03:38:53.416Z,56.94
2017-02-15T03:40:03.136Z,57.23
2017-02-15T03:41:12.885Z,57.13
2017-02-15T03:42:22.030Z,57.13
2017-02-15T03:43:32.017Z,57.51
2017-02-15T03:44:42.248Z,57.23
2017-02-15T03:45:51.229Z,57.7
2017-02-15T03:47:02.545Z,57.6
2017-02-15T03:48:11.696Z,57.89
2017-02-15T03:49:23.566Z,57.89
2017-02-15T03:50:32.601Z,57.98
2017-02-15T03:51:43.351Z,58.26
2017-02-15T03:52:54.881Z,58.36
2017-02-15T03:54:04.310Z,58.65
2017-02-15T03:55:15.185Z,58.65
2017-02-15T03:56:24.676Z,58.45
2017-02-15T03:57:35.012Z,58.65
2017-02-15T03:58:44.030Z,58.26
2017-02-15T03:59:54.282Z,58.74
2017-02-15T04:01:04.513Z,58.55
2017-02-15T04:02:13.904Z,58.55
2017-02-15T04:03:23.409Z,58.45
2017-02-15T04:04:32.611Z,58.65
2017-02-15T04:05:42.043Z,58.65
2017-02-15T04:06:51.039Z,58.62
2017-02-15T04:08:00.929Z,59
2017-02-15T04:09:10.021Z,58.9
2017-02-15T04:10:19.891Z,58.71
2017-02-15T04:11:29.919Z,58.43
2017-02-15T04:12:39.867Z,58.81
2017-02-15T04:13:49.431Z,58.81
2017-02-15T04:14:59.353Z,58.9
2017-02-15T04:16:08.337Z,58.62
2017-02-15T04:17:17.716Z,59
2017-02-15T04:18:26.725Z,58.43
2017-02-15T04:19:37.465Z,58.71
2017-02-15T04:20:47.041Z,58.81
2017-02-15T04:21:56.024Z,58.9
2017-02-15T04:23:05.103Z,59
2017-02-15T04:24:14.519Z,59.38
2017-02-15T04:25:23.508Z,59
2017-02-15T04:26:37.875Z,59.28
2017-02-15T04:27:47.136Z,59.28
2017-02-15T04:28:56.639Z,59.09
2017-02-15T04:30:06.313Z,59.09
2017-02-15T04:31:15.524Z,59.09
2017-02-15T04:32:25.223Z,59.09
2017-02-15T04:33:34.244Z,59.09
2017-02-15T04:34:44.661Z,58.9
2017-02-15T04:35:53.652Z,59.19
2017-02-15T04:37:05.266Z,59.38
2017-02-15T04:38:14.291Z,58.71
2017-02-15T04:39:24.766Z,58.71
2017-02-15T04:40:34.456Z,58.71
2017-02-15T04:41:43.455Z,59
2017-02-15T04:42:53.685Z,59.38
2017-02-15T04:44:02.777Z,58.81
2017-02-15T04:45:13.728Z,58.71
2017-02-15T04:46:23.506Z,58.71
2017-02-15T04:47:34.030Z,58.9
2017-02-15T04:48:43.013Z,58.74
2017-02-15T04:49:52.698Z,58.84
2017-02-15T04:51:02.008Z,58.55
2017-02-15T04:52:10.985Z,58.84
2017-02-15T04:53:19.973Z,58.93
2017-02-15T04:54:28.964Z,58.74
2017-02-15T04:55:37.958Z,58.74
2017-02-15T04:56:47.036Z,58.9
2017-02-15T04:57:56.052Z,58.65
2017-02-15T04:59:05.036Z,58.93
2017-02-15T05:00:14.022Z,58.9
2017-02-15T05:01:23.103Z,58.9
2017-02-15T05:02:32.105Z,58.52
2017-02-15T05:03:41.107Z,58.65
2017-02-15T05:04:50.094Z,59
2017-02-15T05:05:59.072Z,58.71
2017-02-15T05:07:08.073Z,59.09
2017-02-15T05:08:17.153Z,59.09
2017-02-15T05:09:26.143Z,59.12
2017-02-15T05:10:35.128Z,58.81
2017-02-15T05:11:44.124Z,58.9
2017-02-15T05:12:53.115Z,58.9
2017-02-15T05:14:02.107Z,59.38
2017-02-15T05:15:11.090Z,59.38
2017-02-15T05:16:20.174Z,59.38
2017-02-15T05:17:29.254Z,58.9
2017-02-15T05:18:38.742Z,59.47
2017-02-15T05:19:47.755Z,59.09
2017-02-15T05:20:56.731Z,59.19
2017-02-15T05:22:05.726Z,59.28
2017-02-15T05:23:14.718Z,59
2017-02-15T05:24:23.703Z,59
2017-02-15T05:25:32.686Z,58.9
2017-02-15T05:26:41.763Z,59.09
2017-02-15T05:27:50.746Z,59.56
2017-02-15T05:28:59.719Z,59.47
2017-02-15T05:30:08.804Z,59.66
2017-02-15T05:31:17.792Z,59.09
2017-02-15T05:32:26.791Z,58.81
2017-02-15T05:33:35.763Z,59.28
2017-02-15T05:34:44.746Z,59.19
2017-02-15T05:35:53.843Z,59
2017-02-15T05:37:02.828Z,59.09
2017-02-15T05:38:11.818Z,59.28
2017-02-15T05:39:20.906Z,59.19
2017-02-15T05:40:29.886Z,58.9
2017-02-15T05:41:38.866Z,58.81
2017-02-15T05:42:47.854Z,58.62
2017-02-15T05:43:56.849Z,59.28
2017-02-15T05:45:05.857Z,59.28
2017-02-15T05:46:14.850Z,59.19
2017-02-15T05:47:23.911Z,59
2017-02-15T05:48:32.979Z,59.19
2017-02-15T05:49:41.952Z,59.09
2017-02-15T05:50:50.942Z,59.19
2017-02-15T05:51:59.942Z,59.09
2017-02-15T05:53:08.942Z,59.47
2017-02-15T05:54:17.934Z,59.47
2017-02-15T05:55:27.004Z,59
2017-02-15T05:56:36.414Z,59
2017-02-15T05:57:45.400Z,59.19
2017-02-15T05:58:54.394Z,59.28
2017-02-15T06:00:03.393Z,58.81
2017-02-15T06:01:12.379Z,58.81
2017-02-15T06:02:21.463Z,58.74
2017-02-15T06:03:30.455Z,58.84
2017-02-15T06:04:39.621Z,58.65
2017-02-15T06:05:48.700Z,58.74
2017-02-15T06:06:57.800Z,58.55
2017-02-15T06:08:06.905Z,58.55
2017-02-15T06:09:15.904Z,58.65
2017-02-15T06:10:25.297Z,58.36
2017-02-15T06:11:34.288Z,57.98
2017-02-15T06:12:43.282Z,57.79
2017-02-15T06:13:52.276Z,57.89
2017-02-15T06:15:01.354Z,57.98
2017-02-15T06:16:10.756Z,57.79
2017-02-15T06:17:20.247Z,57.98
2017-02-15T06:18:29.243Z,57.89
2017-02-15T06:19:38.336Z,57.6
2017-02-15T06:20:47.313Z,57.7
2017-02-15T06:21:56.293Z,57.51
2017-02-15T06:23:05.303Z,57.32
2017-02-15T06:24:14.307Z,57.42
2017-02-15T06:25:23.300Z,57.42
2017-02-15T06:26:32.280Z,57.13
2017-02-15T06:27:41.284Z,57.04
2017-02-15T06:28:50.680Z,57.23
2017-02-15T06:29:59.761Z,57.6
2017-02-15T06:31:09.168Z,57.32
2017-02-15T06:32:18.338Z,57.51
2017-02-15T06:33:27.753Z,57.51
2017-02-15T06:34:36.764Z,57.32
2017-02-15T06:35:45.753Z,57.42
2017-02-15T06:36:54.735Z,57.6
2017-02-15T06:38:04.228Z,57.6
2017-02-15T06:39:13.215Z,57.51
2017-02-15T06:40:22.217Z,57.32
2017-02-15T06:41:31.629Z,57.6
2017-02-15T06:42:40.610Z,57.6
2017-02-15T06:43:49.609Z,57.6
2017-02-15T06:44:58.595Z,57.32
2017-02-15T06:46:07.596Z,57.6
2017-02-15T06:47:16.578Z,57.13
2017-02-15T06:48:25.574Z,57.23
2017-02-15T06:49:34.564Z,57.13
2017-02-15T06:50:43.553Z,57.32
2017-02-15T06:51:52.574Z,56.94
2017-02-15T06:53:01.569Z,57.13
2017-02-15T06:54:10.639Z,57.32
2017-02-15T06:55:19.713Z,57.04
2017-02-15T06:56:28.793Z,57.04
2017-02-15T06:57:37.777Z,57.32
2017-02-15T06:58:46.865Z,57.42
2017-02-15T06:59:55.885Z,57.51
2017-02-15T07:01:04.968Z,57.98
2017-02-15T07:02:13.956Z,57.79
2017-02-15T07:03:23.448Z,58.17
2017-02-15T07:04:32.436Z,57.98
2017-02-15T07:05:41.444Z,58.55
2017-02-15T07:06:50.439Z,58.45
2017-02-15T07:07:59.881Z,58.55
2017-02-15T07:09:08.860Z,58.36
2017-02-15T07:10:18.064Z,58.65
2017-02-15T07:11:27.055Z,58.55
2017-02-15T07:12:36.780Z,58.55
2017-02-15T07:13:46.346Z,58.55
2017-02-15T07:14:55.467Z,58.55
2017-02-15T07:16:04.457Z,58.74
2017-02-15T07:17:13.440Z,59.03
2017-02-15T07:18:22.417Z,58.93
2017-02-15T07:19:32.234Z,58.84
2017-02-15T07:20:41.247Z,58.52
2017-02-15T07:21:50.652Z,58.93
2017-02-15T07:22:59.731Z,58.74
2017-02-15T07:24:09.130Z,58.74
2017-02-15T07:25:18.113Z,58.74
2017-02-15T07:26:27.519Z,58.84
2017-02-15T07:27:36.513Z,58.74
2017-02-15T07:28:45.515Z,58.84
2017-02-15T07:29:59.158Z,58.84
2017-02-15T07:31:16.290Z,58.84
2017-02-15T07:32:25.277Z,58.74
2017-02-15T07:33:34.275Z,58.84
2017-02-15T07:34:43.261Z,58.65
2017-02-15T07:35:52.258Z,58.74
2017-02-15T07:37:01.250Z,58.74
2017-02-15T07:38:10.239Z,58.65
2017-02-15T07:39:19.245Z,59.03
2017-02-15T07:40:28.231Z,58.74
2017-02-15T07:41:37.248Z,58.93
2017-02-15T07:42:46.238Z,58.45
2017-02-15T07:43:55.361Z,58.26
2017-02-15T07:45:04.338Z,58.45
2017-02-15T07:46:13.319Z,58.65
2017-02-15T07:47:22.391Z,58.36
2017-02-15T07:48:31.498Z,58.55
2017-02-15T07:49:40.486Z,58.07
2017-02-15T07:50:49.473Z,58.17
2017-02-15T07:51:58.609Z,58.45
2017-02-15T07:53:08.028Z,58.45
2017-02-15T07:54:17.029Z,58.55
2017-02-15T07:55:26.015Z,58.07
2017-02-15T07:56:35.024Z,58.07
2017-02-15T07:57:44.008Z,57.7
2017-02-15T07:58:53.172Z,57.79
2017-02-15T08:00:02.252Z,57.98
2017-02-15T08:01:11.249Z,57.79
2017-02-15T08:02:20.244Z,57.79
2017-02-15T08:03:29.240Z,57.79
2017-02-15T08:04:38.634Z,57.7
2017-02-15T08:05:47.644Z,58.07
2017-02-15T08:06:56.639Z,57.89
2017-02-15T08:08:05.617Z,58.17
2017-02-15T08:09:14.598Z,58.17
2017-02-15T08:10:23.586Z,57.98
2017-02-15T08:11:32.598Z,57.98
2017-02-15T08:12:41.604Z,57.89
2017-02-15T08:13:50.591Z,57.89
2017-02-15T08:14:59.592Z,57.7
2017-02-15T08:16:08.605Z,57.25
2017-02-15T08:17:18.038Z,57.25
2017-02-15T08:18:27.042Z,56.97
2017-02-15T08:19:36.152Z,57.64
2017-02-15T08:20:45.130Z,56.78
2017-02-15T08:21:54.538Z,56.59
2017-02-15T08:23:03.630Z,56.49
2017-02-15T08:24:12.705Z,56.21
2017-02-15T08:25:21.690Z,56.3
2017-02-15T08:26:30.690Z,55.64
2017-02-15T08:27:39.670Z,56.21
2017-02-15T08:28:48.644Z,56.02
2017-02-15T08:29:57.636Z,56.12
2017-02-15T08:31:06.651Z,55.36
2017-02-15T08:32:15.639Z,55.26
2017-02-15T08:33:24.714Z,55.36
2017-02-15T08:34:34.108Z,55.36
2017-02-15T08:35:43.103Z,55.36
2017-02-15T08:36:52.094Z,55.45
2017-02-15T08:38:01.193Z,55.45
2017-02-15T08:39:10.191Z,55.45
2017-02-15T08:40:19.282Z,55.17
2017-02-15T08:41:28.288Z,54.88
2017-02-15T08:42:37.270Z,54.6
2017-02-15T08:43:46.291Z,54.63
2017-02-15T08:44:55.283Z,54.79
2017-02-15T08:46:04.272Z,54.03
2017-02-15T08:47:13.269Z,54.06
2017-02-15T08:48:22.356Z,54.13
2017-02-15T08:49:31.838Z,53.94
2017-02-15T08:50:40.824Z,54.25
2017-02-15T08:51:49.905Z,54.15
2017-02-15T08:52:58.998Z,54.25
2017-02-15T08:54:07.989Z,53.49
2017-02-15T08:55:16.981Z,53.58
2017-02-15T08:56:26.004Z,53.77
2017-02-15T08:57:35.496Z,53.96
2017-02-15T08:58:44.490Z,53.58
2017-02-15T08:59:53.471Z,53.3
2017-02-15T09:01:02.864Z,53.3
2017-02-15T09:02:11.843Z,53.39
2017-02-15T09:03:20.928Z,53.2
2017-02-15T09:04:29.953Z,53.3
2017-02-15T09:05:39.113Z,53.49
2017-02-15T09:06:48.443Z,53.49
2017-02-15T09:07:57.531Z,53.2
2017-02-15T09:09:06.529Z,53.39
2017-02-15T09:10:15.607Z,53.11
2017-02-15T09:11:24.692Z,53.49
2017-02-15T09:12:34.115Z,53.02
2017-02-15T09:13:43.112Z,52.73
2017-02-15T09:14:52.098Z,53.02
2017-02-15T09:16:01.514Z,52.54
2017-02-15T09:17:10.510Z,52.92
2017-02-15T09:18:19.524Z,53.02
2017-02-15T09:19:28.668Z,52.64
2017-02-15T09:20:37.688Z,52.45
2017-02-15T09:21:46.691Z,52.35
2017-02-15T09:22:55.676Z,52.19
2017-02-15T09:24:04.667Z,51.9
2017-02-15T09:25:13.719Z,52.09
2017-02-15T09:26:22.719Z,51.43
2017-02-15T09:27:31.707Z,51.72
2017-02-15T09:28:40.685Z,51.9
2017-02-15T09:29:49.672Z,51.14
2017-02-15T09:30:58.658Z,51.05
2017-02-15T09:32:07.769Z,51.14
2017-02-15T09:33:17.493Z,51.14
2017-02-15T09:34:27.282Z,50.57
2017-02-15T09:35:36.876Z,50.48
2017-02-15T09:36:46.445Z,50.2
2017-02-15T09:37:55.541Z,50.2
2017-02-15T09:39:04.941Z,50.29
2017-02-15T09:40:13.927Z,50.48
2017-02-15T09:41:23.422Z,50.29
2017-02-15T09:42:33.022Z,49.93
2017-02-15T09:43:42.316Z,49.72
2017-02-15T09:44:51.640Z,49.65
2017-02-15T09:46:00.650Z,49.65
2017-02-15T09:47:10.198Z,49.37
2017-02-15T09:48:22.703Z,49.46
2017-02-15T09:49:32.340Z,48.99
2017-02-15T09:50:41.461Z,48.89
2017-02-15T09:51:50.458Z,49.08
2017-02-15T09:52:59.454Z,48.7
2017-02-15T09:54:08.440Z,48.61
2017-02-15T09:55:17.654Z,48.41
2017-02-15T09:56:26.995Z,48.41
2017-02-15T09:57:36.011Z,48.03
2017-02-15T09:58:45.009Z,47.75
2017-02-15T09:59:54.715Z,47.85
2017-02-15T10:01:03.705Z,48.22
2017-02-15T10:02:13.429Z,47.87
2017-02-15T10:03:23.507Z,47.2
2017-02-15T10:04:32.852Z,47.39
2017-02-15T10:05:42.375Z,47.3
2017-02-15T10:06:51.395Z,47.3
2017-02-15T10:08:00.745Z,47.39
2017-02-15T10:09:10.745Z,47.2
2017-02-15T10:10:21.455Z,47.2
2017-02-15T10:11:32.308Z,46.83
2017-02-15T10:12:43.294Z,47.3
2017-02-15T10:13:53.928Z,47.11
2017-02-15T10:15:03.300Z,46.64
2017-02-15T10:16:14.161Z,46.47
2017-02-15T10:17:24.646Z,46.56
2017-02-15T10:18:33.654Z,46.28
2017-02-15T10:19:43.820Z,46.37
2017-02-15T10:20:53.140Z,46.37
2017-02-15T10:22:03.379Z,46.28
2017-02-15T10:23:14.024Z,46.19
2017-02-15T10:24:23.787Z,45.71
2017-02-15T10:25:33.160Z,46
2017-02-15T10:26:42.257Z,45.33
2017-02-15T10:27:51.745Z,45.33
2017-02-15T10:29:00.745Z,45.14
2017-02-15T10:30:09.789Z,45.14
2017-02-15T10:31:18.807Z,45.33
2017-02-15T10:32:27.799Z,44.78
2017-02-15T10:33:36.801Z,44.4
2017-02-15T10:34:45.803Z,44.76
2017-02-15T10:35:54.974Z,43.93
2017-02-15T10:37:03.989Z,44.21
2017-02-15T10:38:13.018Z,43.93
2017-02-15T10:39:22.037Z,44.02
2017-02-15T10:40:31.122Z,43.93
2017-02-15T10:41:40.510Z,43.73
2017-02-15T10:42:49.598Z,43.45
2017-02-15T10:43:58.583Z,43.26
2017-02-15T10:45:07.600Z,43.45
2017-02-15T10:46:16.682Z,42.97
2017-02-15T10:47:25.665Z,43.07
2017-02-15T10:48:34.668Z,42.97
2017-02-15T10:49:43.671Z,42.69
2017-02-15T10:50:52.662Z,42.88
2017-02-15T10:52:01.656Z,42.14
2017-02-15T10:53:10.640Z,42.04
2017-02-15T10:54:19.631Z,42.04
2017-02-15T10:55:28.645Z,41.85
2017-02-15T10:56:37.644Z,41.95
2017-02-15T10:57:48.311Z,41.47
2017-02-15T10:58:57.314Z,41.38
2017-02-15T11:00:06.308Z,41.28
2017-02-15T11:01:15.332Z,41.28
2017-02-15T11:02:24.430Z,41.28
2017-02-15T11:03:33.436Z,41.38
2017-02-15T11:04:42.443Z,40.81
2017-02-15T11:05:51.430Z,40.52
2017-02-15T11:07:00.452Z,40.05
2017-02-15T11:08:09.849Z,39.86
2017-02-15T11:09:18.873Z,39.38
2017-02-15T11:10:27.958Z,38.81
2017-02-15T11:11:36.957Z,38.9
2017-02-15T11:12:45.958Z,38.62
2017-02-15T11:13:55.041Z,38.9
2017-02-15T11:15:04.031Z,38.83
2017-02-15T11:16:13.035Z,39
2017-02-15T11:17:22.068Z,39.21
2017-02-15T11:18:31.062Z,38.73
2017-02-15T11:19:40.169Z,38.54
2017-02-15T11:20:49.176Z,38.45
2017-02-15T11:21:58.192Z,38.35
2017-02-15T11:23:07.195Z,38.26
2017-02-15T11:24:16.204Z,38.35
2017-02-15T11:25:25.279Z,38.26
2017-02-15T11:26:34.300Z,37.97
2017-02-15T11:27:43.396Z,37.88
2017-02-15T11:28:52.407Z,37.78
2017-02-15T11:30:01.813Z,37.88
2017-02-15T11:31:10.829Z,37.69
2017-02-15T11:32:19.850Z,37.61
2017-02-15T11:33:28.851Z,37.88
2017-02-15T11:34:37.873Z,37.42
2017-02-15T11:35:46.871Z,37.32
2017-02-15T11:36:55.877Z,36.94
2017-02-15T11:38:04.890Z,37.13
2017-02-15T11:39:13.897Z,36.85
2017-02-15T11:40:22.894Z,36.76
2017-02-15T11:41:31.906Z,36.57
2017-02-15T11:42:40.910Z,36.37
2017-02-15T11:43:49.894Z,36.47
2017-02-15T11:44:58.886Z,36.08
2017-02-15T11:46:07.889Z,36.28
2017-02-15T11:47:16.992Z,36.08
2017-02-15T11:48:25.986Z,36.08
2017-02-15T11:49:34.978Z,35.99
2017-02-15T11:50:43.963Z,35.99
2017-02-15T11:51:53.934Z,35.99
2017-02-15T11:53:03.880Z,36.08
2017-02-15T11:54:13.733Z,35.71
2017-02-15T11:55:22.733Z,35.8
2017-02-15T11:56:32.868Z,35.8
2017-02-15T11:57:42.963Z,35.99
2017-02-15T11:58:52.745Z,35.61
2017-02-15T12:00:01.835Z,35.35
2017-02-15T12:01:11.401Z,35.23
2017-02-15T12:02:20.402Z,34.94
2017-02-15T12:03:30.539Z,34.96
2017-02-15T12:04:39.553Z,34.75
2017-02-15T12:05:49.258Z,34.67
2017-02-15T12:06:58.257Z,34.3
2017-02-15T12:08:08.384Z,34.3
2017-02-15T12:09:17.727Z,33.63
2017-02-15T12:10:27.890Z,33.53
2017-02-15T12:11:37.393Z,33.34
2017-02-15T12:12:48.174Z,33.53
2017-02-15T12:13:57.263Z,33.44
2017-02-15T12:15:08.017Z,33.34
2017-02-15T12:16:18.469Z,33.15
2017-02-15T12:17:28.195Z,33.15
2017-02-15T12:18:37.286Z,32.87
2017-02-15T12:19:46.813Z,32.77
2017-02-15T12:20:55.798Z,32.29
2017-02-15T12:22:06.070Z,32.29
2017-02-15T12:23:16.331Z,31.92
2017-02-15T12:24:25.352Z,31.82
2017-02-15T12:25:34.347Z,31.72
2017-02-15T12:26:44.043Z,31.63
2017-02-15T12:27:53.046Z,31.34
2017-02-15T12:29:03.375Z,31.15
2017-02-15T12:30:12.431Z,31.24
2017-02-15T12:31:23.140Z,30.58
2017-02-15T12:32:32.460Z,30.5
2017-02-15T12:33:41.463Z,30.2
2017-02-15T12:34:51.214Z,29.82
2017-02-15T12:36:00.208Z,29.72
2017-02-15T12:37:09.194Z,29.36
2017-02-15T12:38:18.200Z,29.53
2017-02-15T12:39:27.200Z,29.45
2017-02-15T12:40:36.567Z,29.36
2017-02-15T12:41:45.909Z,29.16
2017-02-15T12:42:56.735Z,28.59
2017-02-15T12:44:05.740Z,28.97
2017-02-15T12:45:16.354Z,29.36
2017-02-15T12:46:25.875Z,29.26
2017-02-15T12:47:35.616Z,29.36
2017-02-15T12:48:45.576Z,29.16
2017-02-15T12:49:55.428Z,29.36
2017-02-15T12:51:04.917Z,29.16
2017-02-15T12:52:15.091Z,29.16
2017-02-15T12:53:24.987Z,28.69
2017-02-15T12:54:37.014Z,28.88
2017-02-15T12:55:49.504Z,28.59
2017-02-15T12:56:59.208Z,28.59
2017-02-15T12:58:09.159Z,28.59
2017-02-15T12:59:19.368Z,28.5
2017-02-15T13:00:28.735Z,28.5
2017-02-15T13:01:38.661Z,28.5
2017-02-15T13:02:49.359Z,28.59
2017-02-15T13:04:04.794Z,28.69
2017-02-15T13:05:13.776Z,28.88
2017-02-15T13:06:22.802Z,28.78
2017-02-15T13:07:31.794Z,28.78
2017-02-15T13:08:40.820Z,29.07
2017-02-15T13:09:49.838Z,29.07
2017-02-15T13:10:59.013Z,28.78
2017-02-15T13:12:08.022Z,28.78
2017-02-15T13:13:17.057Z,28.59
2017-02-15T13:14:26.063Z,28.69
2017-02-15T13:15:35.080Z,28.97
2017-02-15T13:16:44.079Z,28.5
2017-02-15T13:17:53.087Z,28.59
2017-02-15T13:19:02.107Z,28.59
2017-02-15T13:20:11.106Z,28.5
2017-02-15T13:21:20.685Z,28.88
2017-02-15T13:22:30.510Z,28.97
2017-02-15T13:23:40.159Z,28.97
2017-02-15T13:24:49.158Z,28.78
2017-02-15T13:25:58.154Z,28.89
2017-02-15T13:27:07.161Z,28.8
2017-02-15T13:28:17.508Z,28.97
2017-02-15T13:29:26.595Z,28.89
2017-02-15T13:30:35.600Z,28.7
2017-02-15T13:31:45.942Z,28.61
2017-02-15T13:32:55.043Z,28.51
2017-02-15T13:34:04.135Z,27.94
2017-02-15T13:35:13.157Z,27.84
2017-02-15T13:36:22.182Z,27.75
2017-02-15T13:37:31.190Z,27.84
2017-02-15T13:38:40.187Z,27.94
2017-02-15T13:39:49.179Z,27.66
2017-02-15T13:40:58.169Z,27.08
2017-02-15T13:42:07.181Z,27.55
2017-02-15T13:43:16.290Z,27.27
2017-02-15T13:44:25.300Z,27.16
2017-02-15T13:45:34.296Z,27.26
2017-02-15T13:46:43.402Z,27.36
2017-02-15T13:47:52.397Z,27.73
2017-02-15T13:49:01.390Z,27.64
2017-02-15T13:50:10.408Z,27.36
2017-02-15T13:51:19.804Z,27.56
2017-02-15T13:52:28.815Z,27.75
2017-02-15T13:53:37.817Z,27.83
2017-02-15T13:54:46.893Z,27.56
2017-02-15T13:55:55.894Z,27.47
2017-02-15T13:57:04.879Z,27.56
2017-02-15T13:58:13.868Z,27.56
2017-02-15T13:59:22.972Z,27.66
2017-02-15T14:00:31.970Z,27.75
2017-02-15T14:01:41.485Z,27.84
2017-02-15T14:02:50.490Z,27.94
2017-02-15T14:03:59.489Z,28.03
2017-02-15T14:05:08.683Z,28.32
2017-02-15T14:06:17.771Z,28.13
2017-02-15T14:07:26.768Z,28.42
2017-02-15T14:08:35.753Z,28.51
2017-02-15T14:09:44.873Z,28.42
2017-02-15T14:10:53.883Z,28.51
2017-02-15T14:12:02.900Z,28.61
2017-02-15T14:13:11.908Z,28.61
2017-02-15T14:14:20.907Z,28.61
2017-02-15T14:15:29.918Z,28.8
2017-02-15T14:16:38.915Z,28.61
2017-02-15T14:17:47.925Z,28.7
2017-02-15T14:18:56.932Z,28.61
2017-02-15T14:20:05.920Z,28.61
2017-02-15T14:21:14.922Z,28.8
2017-02-15T14:22:23.922Z,28.7
2017-02-15T14:23:32.909Z,28.7
2017-02-15T14:24:41.997Z,28.7
2017-02-15T14:25:51.080Z,28.7
2017-02-15T14:27:00.473Z,28.7
2017-02-15T14:28:09.470Z,28.51
2017-02-15T14:29:18.555Z,28.23
2017-02-15T14:30:27.782Z,28.32
2017-02-15T14:31:36.907Z,28.23
2017-02-15T14:32:45.908Z,28.42
2017-02-15T14:33:54.918Z,28.32
2017-02-15T14:35:04.873Z,28.32
2017-02-15T14:36:15.132Z,28.61
2017-02-15T14:37:25.027Z,28.51
2017-02-15T14:38:34.439Z,28.51
2017-02-15T14:39:43.429Z,28.51
2017-02-15T14:40:53.548Z,28.61
2017-02-15T14:42:03.784Z,28.7
2017-02-15T14:43:12.946Z,28.7
2017-02-15T14:44:22.101Z,28.51
2017-02-15T14:45:32.839Z,28.89
2017-02-15T14:46:43.511Z,28.89
2017-02-15T14:47:53.408Z,28.7
2017-02-15T14:49:03.143Z,29.08
2017-02-15T14:50:12.870Z,29.18
2017-02-15T14:51:21.865Z,29.37
2017-02-15T14:52:31.428Z,29.64
2017-02-15T14:53:40.437Z,29.56
2017-02-15T14:54:50.722Z,29.85
2017-02-15T14:56:00.029Z,29.75
2017-02-15T14:57:09.311Z,29.75